createdAt,value
2018-06-13T00:00:05.151Z,1011.46
2018-06-13T00:01:05.914Z,1011.43
2018-06-13T00:02:05.110Z,1011.46
2018-06-13T00:03:05.096Z,1011.44
2018-06-13T00:04:05.064Z,1011.46
2018-06-13T00:05:05.054Z,1011.51
2018-06-13T00:06:05.022Z,1011.50
2018-06-13T00:07:04.986Z,1011.46
2018-06-13T00:08:04.987Z,1011.51
2018-06-13T00:09:04.958Z,1011.49
2018-06-13T00:10:04.997Z,1011.54
2018-06-13T00:11:04.938Z,1011.54
2018-06-13T00:12:05.023Z,1011.56
2018-06-13T00:13:04.955Z,1011.56
2018-06-13T00:14:04.943Z,1011.56
2018-06-13T00:15:04.871Z,1011.58
2018-06-13T00:16:04.937Z,1011.57
2018-06-13T00:17:04.951Z,1011.52
2018-06-13T00:18:04.884Z,1011.51
2018-06-13T00:19:04.865Z,1011.56
2018-06-13T00:20:04.855Z,1011.54
2018-06-13T00:21:04.810Z,1011.51
2018-06-13T00:22:04.884Z,1011.56
2018-06-13T00:23:04.782Z,1011.55
2018-06-13T00:24:04.778Z,1011.52
2018-06-13T00:25:04.794Z,1011.55
2018-06-13T00:26:04.808Z,1011.58
2018-06-13T00:27:04.815Z,1011.59
2018-06-13T00:28:04.714Z,1011.59
2018-06-13T00:29:04.720Z,1011.60
2018-06-13T00:30:04.697Z,1011.59
2018-06-13T00:31:04.640Z,1011.65
2018-06-13T00:32:04.725Z,1011.68
2018-06-13T00:33:04.654Z,1011.72
2018-06-13T00:34:04.701Z,1011.74
2018-06-13T00:35:04.699Z,1011.72
2018-06-13T00:36:04.582Z,1011.74
2018-06-13T00:37:04.639Z,1011.74
2018-06-13T00:38:04.558Z,1011.72
2018-06-13T00:39:04.586Z,1011.74
2018-06-13T00:40:04.505Z,1011.74
2018-06-13T00:41:04.557Z,1011.72
2018-06-13T00:42:04.496Z,1011.70
2018-06-13T00:43:04.475Z,1011.71
2018-06-13T00:44:04.555Z,1011.74
2018-06-13T00:45:04.474Z,1011.77
2018-06-13T00:46:04.440Z,1011.80
2018-06-13T00:47:04.493Z,1011.81
2018-06-13T00:48:04.475Z,1011.79
2018-06-13T00:49:04.459Z,1011.82
2018-06-13T00:50:04.391Z,1011.81
2018-06-13T00:51:04.351Z,1011.85
2018-06-13T00:52:04.338Z,1011.80
2018-06-13T00:53:04.350Z,1011.80
2018-06-13T00:54:04.908Z,1011.80
2018-06-13T00:55:04.278Z,1011.84
2018-06-13T00:56:04.279Z,1011.81
2018-06-13T00:57:04.264Z,1011.81
2018-06-13T00:58:04.263Z,1011.76
2018-06-13T00:59:04.219Z,1011.78
2018-06-13T01:00:04.232Z,1011.79
2018-06-13T01:01:04.257Z,1011.81
2018-06-13T01:02:04.180Z,1011.79
2018-06-13T01:03:04.164Z,1011.78
2018-06-13T01:04:04.148Z,1011.80
2018-06-13T01:05:04.171Z,1011.80
2018-06-13T01:06:04.199Z,1011.79
2018-06-13T01:07:04.837Z,1011.82
2018-06-13T01:08:04.128Z,1011.81
2018-06-13T01:09:04.078Z,1011.83
2018-06-13T01:10:04.058Z,1011.82
2018-06-13T01:11:25.047Z,1011.81
2018-06-13T01:12:04.033Z,1011.77
2018-06-13T01:13:04.012Z,1011.75
2018-06-13T01:14:03.996Z,1011.76
2018-06-13T01:15:04.002Z,1011.75
2018-06-13T01:16:03.984Z,1011.70
2018-06-13T01:17:03.954Z,1011.71
2018-06-13T01:18:03.941Z,1011.73
2018-06-13T01:19:03.925Z,1011.67
2018-06-13T01:20:03.908Z,1011.73
2018-06-13T01:21:03.899Z,1011.69
2018-06-13T01:22:03.892Z,1011.73
2018-06-13T01:23:03.863Z,1011.76
2018-06-13T01:24:03.851Z,1011.81
2018-06-13T01:25:03.831Z,1011.79
2018-06-13T01:26:03.816Z,1011.82
2018-06-13T01:27:03.812Z,1011.86
2018-06-13T01:28:03.793Z,1011.82
2018-06-13T01:29:03.774Z,1011.88
2018-06-13T01:30:03.759Z,1011.84
2018-06-13T01:31:03.744Z,1011.81
2018-06-13T01:32:03.750Z,1011.80
2018-06-13T01:33:11.950Z,1011.79
2018-06-13T01:34:11.987Z,1011.81
2018-06-13T01:35:13.018Z,1011.80
2018-06-13T01:36:03.687Z,1011.74
2018-06-13T01:37:03.656Z,1011.75
2018-06-13T01:38:11.194Z,1011.78
2018-06-13T01:39:12.089Z,1011.78
2018-06-13T01:40:03.620Z,1011.82
2018-06-13T01:41:03.597Z,1011.82
2018-06-13T01:42:03.581Z,1011.79
2018-06-13T01:43:03.581Z,1011.82
2018-06-13T01:44:03.552Z,1011.81
2018-06-13T01:45:03.542Z,1011.80
2018-06-13T01:46:03.539Z,1011.81
2018-06-13T01:47:03.503Z,1011.75
2018-06-13T01:48:03.503Z,1011.81
2018-06-13T01:49:03.480Z,1011.79
2018-06-13T01:50:03.461Z,1011.82
2018-06-13T01:51:03.447Z,1011.76
2018-06-13T01:52:03.428Z,1011.77
2018-06-13T01:53:03.431Z,1011.76
2018-06-13T01:54:03.418Z,1011.75
2018-06-13T01:55:03.385Z,1011.73
2018-06-13T01:56:03.371Z,1011.75
2018-06-13T01:57:03.358Z,1011.75
2018-06-13T01:58:03.370Z,1011.72
2018-06-13T01:59:03.360Z,1011.75
2018-06-13T02:00:03.318Z,1011.73
2018-06-13T02:01:03.299Z,1011.73
2018-06-13T02:02:03.286Z,1011.72
2018-06-13T02:03:03.283Z,1011.74
2018-06-13T02:04:03.291Z,1011.74
2018-06-13T02:05:03.263Z,1011.76
2018-06-13T02:06:03.232Z,1011.77
2018-06-13T02:07:03.214Z,1011.78
2018-06-13T02:08:03.204Z,1011.77
2018-06-13T02:09:03.187Z,1011.82
2018-06-13T02:10:03.173Z,1011.80
2018-06-13T02:11:03.172Z,1011.82
2018-06-13T02:12:03.158Z,1011.79
2018-06-13T02:13:03.131Z,1011.80
2018-06-13T02:14:03.121Z,1011.81
2018-06-13T02:15:03.114Z,1011.82
2018-06-13T02:16:03.081Z,1011.79
2018-06-13T02:17:03.071Z,1011.79
2018-06-13T02:18:03.053Z,1011.80
2018-06-13T02:19:03.042Z,1011.76
2018-06-13T02:20:03.046Z,1011.75
2018-06-13T02:21:03.020Z,1011.78
2018-06-13T02:22:02.999Z,1011.80
2018-06-13T02:23:02.976Z,1011.78
2018-06-13T02:24:02.968Z,1011.77
2018-06-13T02:25:02.956Z,1011.80
2018-06-13T02:26:02.950Z,1011.83
2018-06-13T02:27:02.925Z,1011.84
2018-06-13T02:28:02.917Z,1011.89
2018-06-13T02:29:02.895Z,1011.84
2018-06-13T02:30:02.875Z,1011.85
2018-06-13T02:31:02.897Z,1011.85
2018-06-13T02:32:02.854Z,1011.84
2018-06-13T02:33:02.834Z,1011.83
2018-06-13T02:34:02.825Z,1011.84
2018-06-13T02:35:02.803Z,1011.87
2018-06-13T02:36:02.814Z,1011.88
2018-06-13T02:37:02.783Z,1011.87
2018-06-13T02:38:02.773Z,1011.89
2018-06-13T02:39:02.750Z,1011.88
2018-06-13T02:40:02.751Z,1011.90
2018-06-13T02:41:02.729Z,1011.90
2018-06-13T02:42:02.725Z,1011.91
2018-06-13T02:43:02.692Z,1011.90
2018-06-13T02:44:02.679Z,1011.88
2018-06-13T02:45:02.666Z,1011.91
2018-06-13T02:46:02.667Z,1011.88
2018-06-13T02:47:02.636Z,1011.88
2018-06-13T02:48:02.638Z,1011.88
2018-06-13T02:49:02.603Z,1011.88
2018-06-13T02:50:02.596Z,1011.91
2018-06-13T02:51:02.578Z,1011.91
2018-06-13T02:52:02.561Z,1011.89
2018-06-13T02:53:02.565Z,1011.95
2018-06-13T02:54:02.568Z,1011.97
2018-06-13T02:55:02.515Z,1011.96
2018-06-13T02:56:02.503Z,1011.94
2018-06-13T02:57:02.495Z,1011.94
2018-06-13T02:58:02.472Z,1011.91
2018-06-13T02:59:02.455Z,1011.95
2018-06-13T03:00:02.466Z,1011.95
2018-06-13T03:01:02.428Z,1011.92
2018-06-13T03:02:02.415Z,1011.94
2018-06-13T03:03:02.395Z,1011.95
2018-06-13T03:04:02.385Z,1011.97
2018-06-13T03:05:02.374Z,1011.94
2018-06-13T03:06:02.373Z,1011.99
2018-06-13T03:07:02.336Z,1011.97
2018-06-13T03:08:02.323Z,1011.97
2018-06-13T03:09:02.320Z,1011.97
2018-06-13T03:10:02.297Z,1011.91
2018-06-13T03:11:02.292Z,1011.98
2018-06-13T03:12:02.285Z,1011.95
2018-06-13T03:13:02.270Z,1011.95
2018-06-13T03:14:02.242Z,1012.00
2018-06-13T03:15:02.228Z,1011.99
2018-06-13T03:16:02.217Z,1012.02
2018-06-13T03:17:02.197Z,1011.99
2018-06-13T03:18:02.194Z,1011.99
2018-06-13T03:20:34.199Z,1012.01
2018-06-13T03:21:34.160Z,1012.03
2018-06-13T03:22:34.179Z,1012.03
2018-06-13T03:23:34.155Z,1011.99
2018-06-13T03:24:34.117Z,1012.00
2018-06-13T03:25:34.105Z,1012.02
2018-06-13T03:26:34.096Z,1012.04
2018-06-13T03:27:34.094Z,1012.02
2018-06-13T03:28:41.600Z,1012.01
2018-06-13T03:29:42.457Z,1012.03
2018-06-13T03:30:34.055Z,1012.03
2018-06-13T03:31:42.474Z,1011.99
2018-06-13T03:32:34.017Z,1012.03
2018-06-13T03:33:33.987Z,1012.04
2018-06-13T03:34:42.016Z,1012.05
2018-06-13T03:35:41.512Z,1012.03
2018-06-13T03:36:33.949Z,1012.07
2018-06-13T03:37:33.939Z,1012.07
2018-06-13T03:38:33.935Z,1012.08
2018-06-13T03:39:33.912Z,1012.08
2018-06-13T03:40:33.885Z,1012.06
2018-06-13T03:41:33.874Z,1012.08
2018-06-13T03:42:33.858Z,1012.11
2018-06-13T03:43:33.853Z,1012.06
2018-06-13T03:44:33.827Z,1012.11
2018-06-13T03:45:33.831Z,1012.12
2018-06-13T03:46:33.812Z,1012.07
2018-06-13T03:47:33.779Z,1012.11
2018-06-13T03:48:33.787Z,1012.13
2018-06-13T03:49:33.756Z,1012.13
2018-06-13T03:50:33.737Z,1012.09
2018-06-13T03:51:33.729Z,1012.04
2018-06-13T03:52:33.711Z,1012.04
2018-06-13T03:53:33.715Z,1012.05
2018-06-13T03:54:33.682Z,1012.05
2018-06-13T03:55:33.675Z,1012.09
2018-06-13T03:56:33.648Z,1012.09
2018-06-13T03:57:33.637Z,1012.09
2018-06-13T03:58:33.638Z,1012.09
2018-06-13T03:59:33.621Z,1012.11
2018-06-13T04:00:33.593Z,1012.10
2018-06-13T04:01:33.572Z,1012.09
2018-06-13T04:02:33.560Z,1012.10
2018-06-13T04:03:33.567Z,1012.09
2018-06-13T04:04:33.535Z,1012.10
2018-06-13T04:05:33.522Z,1012.13
2018-06-13T04:06:33.510Z,1012.10
2018-06-13T04:07:33.498Z,1012.11
2018-06-13T04:08:33.494Z,1012.10
2018-06-13T04:09:33.476Z,1012.10
2018-06-13T04:10:33.451Z,1012.09
2018-06-13T04:11:33.444Z,1012.10
2018-06-13T04:12:33.432Z,1012.09
2018-06-13T04:13:33.410Z,1012.05
2018-06-13T04:14:33.391Z,1012.10
2018-06-13T04:15:33.378Z,1012.15
2018-06-13T04:16:33.376Z,1012.17
2018-06-13T04:17:33.349Z,1012.16
2018-06-13T04:18:33.333Z,1012.20
2018-06-13T04:19:33.330Z,1012.19
2018-06-13T04:20:33.321Z,1012.19
2018-06-13T04:23:05.338Z,1012.21
2018-06-13T04:24:05.293Z,1012.18
2018-06-13T04:25:05.293Z,1012.16
2018-06-13T04:26:05.266Z,1012.13
2018-06-13T04:27:05.268Z,1012.10
2018-06-13T04:28:05.241Z,1012.07
2018-06-13T04:29:05.227Z,1012.08
2018-06-13T04:30:05.250Z,1012.03
2018-06-13T04:31:05.195Z,1012.05
2018-06-13T04:32:05.198Z,1012.04
2018-06-13T04:33:05.164Z,1012.03
2018-06-13T04:34:05.148Z,1012.04
2018-06-13T04:35:05.141Z,1012.00
2018-06-13T04:36:05.129Z,1011.98
2018-06-13T04:37:05.109Z,1012.00
2018-06-13T04:38:05.109Z,1012.00
2018-06-13T04:39:05.103Z,1012.04
2018-06-13T04:40:05.071Z,1012.05
2018-06-13T04:41:05.055Z,1012.07
2018-06-13T04:42:05.039Z,1012.06
2018-06-13T04:43:05.926Z,1012.05
2018-06-13T04:44:05.024Z,1012.04
2018-06-13T04:45:04.994Z,1012.06
2018-06-13T04:46:04.988Z,1012.08
2018-06-13T04:47:04.963Z,1012.07
2018-06-13T04:48:04.963Z,1012.08
2018-06-13T04:49:04.957Z,1012.11
2018-06-13T04:50:04.935Z,1012.12
2018-06-13T04:51:04.910Z,1012.12
2018-06-13T04:52:04.909Z,1012.09
2018-06-13T04:53:04.876Z,1012.11
2018-06-13T04:54:04.883Z,1012.17
2018-06-13T04:55:04.851Z,1012.17
2018-06-13T04:56:04.852Z,1012.15
2018-06-13T04:57:04.832Z,1012.16
2018-06-13T04:58:04.816Z,1012.18
2018-06-13T04:59:04.814Z,1012.23
2018-06-13T05:00:04.785Z,1012.20
2018-06-13T05:01:04.786Z,1012.20
2018-06-13T05:02:04.750Z,1012.20
2018-06-13T05:03:04.739Z,1012.24
2018-06-13T05:04:04.725Z,1012.22
2018-06-13T05:05:04.726Z,1012.23
2018-06-13T05:06:04.696Z,1012.22
2018-06-13T05:07:04.691Z,1012.22
2018-06-13T05:08:04.675Z,1012.21
2018-06-13T05:09:04.655Z,1012.18
2018-06-13T05:10:04.656Z,1012.17
2018-06-13T05:11:04.631Z,1012.19
2018-06-13T05:12:04.644Z,1012.24
2018-06-13T05:13:04.601Z,1012.22
2018-06-13T05:14:04.596Z,1012.25
2018-06-13T05:15:04.569Z,1012.24
2018-06-13T05:16:04.576Z,1012.22
2018-06-13T05:17:04.558Z,1012.23
2018-06-13T05:18:04.532Z,1012.26
2018-06-13T05:19:04.515Z,1012.23
2018-06-13T05:20:04.493Z,1012.25
2018-06-13T05:21:04.484Z,1012.27
2018-06-13T05:22:04.497Z,1012.28
2018-06-13T05:23:04.457Z,1012.28
2018-06-13T05:24:04.438Z,1012.28
2018-06-13T05:25:04.431Z,1012.36
2018-06-13T05:26:04.429Z,1012.38
2018-06-13T05:27:04.416Z,1012.36
2018-06-13T05:28:04.387Z,1012.36
2018-06-13T05:29:04.372Z,1012.36
2018-06-13T05:30:04.355Z,1012.40
2018-06-13T05:31:04.342Z,1012.35
2018-06-13T05:32:04.344Z,1012.34
2018-06-13T05:33:04.326Z,1012.34
2018-06-13T05:34:04.300Z,1012.35
2018-06-13T05:35:04.286Z,1012.33
2018-06-13T05:36:04.281Z,1012.33
2018-06-13T05:37:04.276Z,1012.33
2018-06-13T05:38:04.248Z,1012.36
2018-06-13T05:39:04.233Z,1012.33
2018-06-13T05:40:04.231Z,1012.29
2018-06-13T05:41:04.200Z,1012.31
2018-06-13T05:42:04.216Z,1012.31
2018-06-13T05:43:04.199Z,1012.33
2018-06-13T05:44:04.188Z,1012.33
2018-06-13T05:45:04.166Z,1012.35
2018-06-13T05:46:04.134Z,1012.35
2018-06-13T05:47:04.136Z,1012.32
2018-06-13T05:48:04.107Z,1012.31
2018-06-13T05:49:04.111Z,1012.31
2018-06-13T05:50:04.092Z,1012.31
2018-06-13T05:51:04.064Z,1012.30
2018-06-13T05:52:04.058Z,1012.35
2018-06-13T05:53:04.040Z,1012.35
2018-06-13T05:54:04.051Z,1012.35
2018-06-13T05:55:04.032Z,1012.37
2018-06-13T05:56:04.009Z,1012.37
2018-06-13T05:57:03.996Z,1012.36
2018-06-13T05:58:03.965Z,1012.38
2018-06-13T05:59:03.966Z,1012.33
2018-06-13T06:00:03.977Z,1012.34
2018-06-13T06:01:03.988Z,1012.36
2018-06-13T06:02:03.918Z,1012.34
2018-06-13T06:03:03.903Z,1012.32
2018-06-13T06:04:03.881Z,1012.32
2018-06-13T06:05:03.869Z,1012.30
2018-06-13T06:06:03.862Z,1012.33
2018-06-13T06:07:03.859Z,1012.35
2018-06-13T06:08:03.834Z,1012.40
2018-06-13T06:09:03.836Z,1012.45
2018-06-13T06:10:03.801Z,1012.47
2018-06-13T06:11:03.795Z,1012.49
2018-06-13T06:12:03.781Z,1012.49
2018-06-13T06:13:03.764Z,1012.52
2018-06-13T06:14:03.750Z,1012.55
2018-06-13T06:15:03.751Z,1012.54
2018-06-13T06:16:03.725Z,1012.58
2018-06-13T06:17:03.712Z,1012.54
2018-06-13T06:18:03.699Z,1012.61
2018-06-13T06:19:03.692Z,1012.65
2018-06-13T06:20:03.685Z,1012.63
2018-06-13T06:21:03.657Z,1012.65
2018-06-13T06:22:03.659Z,1012.59
2018-06-13T06:23:03.633Z,1012.61
2018-06-13T06:24:03.619Z,1012.60
2018-06-13T06:25:03.603Z,1012.64
2018-06-13T06:26:03.595Z,1012.66
2018-06-13T06:27:03.597Z,1012.62
2018-06-13T06:28:03.566Z,1012.61
2018-06-13T06:29:03.550Z,1012.61
2018-06-13T06:30:03.537Z,1012.59
2018-06-13T06:31:03.543Z,1012.60
2018-06-13T06:32:03.522Z,1012.61
2018-06-13T06:33:03.501Z,1012.59
2018-06-13T06:34:03.487Z,1012.61
2018-06-13T06:35:03.475Z,1012.59
2018-06-13T06:36:03.478Z,1012.62
2018-06-13T06:37:03.450Z,1012.66
2018-06-13T06:38:03.448Z,1012.68
2018-06-13T06:39:03.984Z,1012.67
2018-06-13T06:40:03.409Z,1012.70
2018-06-13T06:41:03.396Z,1012.73
2018-06-13T06:42:03.422Z,1012.70
2018-06-13T06:43:03.395Z,1012.68
2018-06-13T06:44:03.362Z,1012.71
2018-06-13T06:45:03.362Z,1012.71
2018-06-13T06:46:03.349Z,1012.72
2018-06-13T06:47:03.334Z,1012.73
2018-06-13T06:48:03.306Z,1012.75
2018-06-13T06:49:03.957Z,1012.74
2018-06-13T06:50:03.286Z,1012.76
2018-06-13T06:51:03.324Z,1012.74
2018-06-13T06:52:03.276Z,1012.74
2018-06-13T06:53:03.245Z,1012.75
2018-06-13T06:54:03.230Z,1012.79
2018-06-13T06:55:03.218Z,1012.76
2018-06-13T06:56:03.204Z,1012.81
2018-06-13T06:57:05.958Z,1012.80
2018-06-13T06:58:04.005Z,1012.84
2018-06-13T06:59:03.168Z,1012.80
2018-06-13T07:00:03.157Z,1012.78
2018-06-13T07:01:03.142Z,1012.81
2018-06-13T07:02:03.129Z,1012.78
2018-06-13T07:03:03.134Z,1012.78
2018-06-13T07:04:03.104Z,1012.75
2018-06-13T07:05:03.093Z,1012.77
2018-06-13T07:06:03.080Z,1012.72
2018-06-13T07:07:03.070Z,1012.74
2018-06-13T07:08:03.064Z,1012.72
2018-06-13T07:09:03.040Z,1012.74
2018-06-13T07:10:03.029Z,1012.77
2018-06-13T07:11:03.017Z,1012.79
2018-06-13T07:12:03.025Z,1012.78
2018-06-13T07:13:02.990Z,1012.79
2018-06-13T07:14:02.980Z,1012.83
2018-06-13T07:15:02.977Z,1012.82
2018-06-13T07:16:02.947Z,1012.86
2018-06-13T07:17:02.943Z,1012.85
2018-06-13T07:18:02.930Z,1012.89
2018-06-13T07:19:02.981Z,1012.89
2018-06-13T07:20:02.905Z,1012.94
2018-06-13T07:21:02.896Z,1012.92
2018-06-13T07:22:02.882Z,1012.95
2018-06-13T07:23:02.877Z,1012.94
2018-06-13T07:24:02.852Z,1012.95
2018-06-13T07:25:02.841Z,1012.96
2018-06-13T07:26:02.830Z,1012.93
2018-06-13T07:27:02.838Z,1012.94
2018-06-13T07:28:02.800Z,1012.93
2018-06-13T07:29:02.790Z,1012.95
2018-06-13T07:30:02.793Z,1012.90
2018-06-13T07:31:02.770Z,1012.92
2018-06-13T07:32:02.756Z,1012.94
2018-06-13T07:33:02.742Z,1012.90
2018-06-13T07:34:02.735Z,1012.88
2018-06-13T07:35:02.716Z,1012.85
2018-06-13T07:36:02.716Z,1012.89
2018-06-13T07:37:02.689Z,1012.88
2018-06-13T07:38:02.676Z,1012.86
2018-06-13T07:39:02.663Z,1012.90
2018-06-13T07:40:02.675Z,1012.88
2018-06-13T07:41:02.640Z,1012.88
2018-06-13T07:42:02.625Z,1012.89
2018-06-13T07:43:02.612Z,1012.90
2018-06-13T07:44:02.602Z,1012.90
2018-06-13T07:45:02.592Z,1012.89
2018-06-13T07:46:02.594Z,1012.86
2018-06-13T07:47:02.580Z,1012.92
2018-06-13T07:48:02.559Z,1012.91
2018-06-13T07:49:02.537Z,1012.92
2018-06-13T07:50:02.525Z,1012.94
2018-06-13T07:51:02.522Z,1012.95
2018-06-13T07:52:02.517Z,1012.94
2018-06-13T07:53:02.506Z,1012.95
2018-06-13T07:54:02.477Z,1012.95
2018-06-13T07:55:02.467Z,1012.98
2018-06-13T07:56:02.453Z,1012.99
2018-06-13T07:57:02.443Z,1012.99
2018-06-13T07:58:02.452Z,1013.00
2018-06-13T07:59:02.417Z,1013.01
2018-06-13T08:00:02.403Z,1013.02
2018-06-13T08:01:02.392Z,1013.01
2018-06-13T08:02:02.380Z,1013.05
2018-06-13T08:03:02.397Z,1013.08
2018-06-13T08:04:02.353Z,1013.09
2018-06-13T08:05:02.338Z,1013.07
2018-06-13T08:06:02.329Z,1013.13
2018-06-13T08:07:02.315Z,1013.14
2018-06-13T08:08:02.315Z,1013.13
2018-06-13T08:09:02.311Z,1013.15
2018-06-13T08:10:02.275Z,1013.13
2018-06-13T08:11:02.267Z,1013.17
2018-06-13T08:12:02.253Z,1013.16
2018-06-13T08:13:02.241Z,1013.12
2018-06-13T08:14:02.250Z,1013.12
2018-06-13T08:15:02.230Z,1013.13
2018-06-13T08:16:02.202Z,1013.08
2018-06-13T08:17:02.202Z,1013.11
2018-06-13T08:18:02.180Z,1013.08
2018-06-13T08:19:02.168Z,1013.10
2018-06-13T08:20:02.169Z,1013.08
2018-06-13T08:21:02.142Z,1013.16
2018-06-13T08:22:02.130Z,1013.08
2018-06-13T08:23:02.116Z,1013.12
2018-06-13T08:24:02.109Z,1013.16
2018-06-13T08:25:02.108Z,1013.15
2018-06-13T08:26:02.097Z,1013.15
2018-06-13T08:27:02.068Z,1013.16
2018-06-13T08:28:02.055Z,1013.22
2018-06-13T08:29:02.042Z,1013.24
2018-06-13T08:30:02.042Z,1013.30
2018-06-13T08:31:02.019Z,1013.35
2018-06-13T08:32:02.014Z,1013.34
2018-06-13T08:33:01.990Z,1013.40
2018-06-13T08:34:01.985Z,1013.38
2018-06-13T08:35:01.998Z,1013.40
2018-06-13T08:36:01.948Z,1013.41
2018-06-13T08:37:01.939Z,1013.43
2018-06-13T08:38:01.925Z,1013.41
2018-06-13T08:39:01.914Z,1013.42
2018-06-13T08:40:01.914Z,1013.43
2018-06-13T08:41:01.901Z,1013.46
2018-06-13T08:42:01.874Z,1013.44
2018-06-13T08:43:01.862Z,1013.42
2018-06-13T08:44:01.847Z,1013.40
2018-06-13T08:45:01.836Z,1013.40
2018-06-13T08:46:01.840Z,1013.43
2018-06-13T08:47:01.802Z,1013.40
2018-06-13T08:48:01.796Z,1013.44
2018-06-13T08:49:01.786Z,1013.42
2018-06-13T08:50:01.770Z,1013.45
2018-06-13T08:51:02.522Z,1013.42
2018-06-13T08:52:01.777Z,1013.45
2018-06-13T08:53:01.732Z,1013.42
2018-06-13T08:54:01.721Z,1013.46
2018-06-13T08:55:01.707Z,1013.42
2018-06-13T08:56:01.704Z,1013.45
2018-06-13T08:57:01.693Z,1013.46
2018-06-13T08:58:01.687Z,1013.38
2018-06-13T08:59:01.656Z,1013.41
2018-06-13T09:00:01.642Z,1013.42
2018-06-13T09:01:01.627Z,1013.43
2018-06-13T09:02:01.626Z,1013.45
2018-06-13T09:03:01.622Z,1013.50
2018-06-13T09:04:01.587Z,1013.54
2018-06-13T09:05:01.577Z,1013.54
2018-06-13T09:06:01.566Z,1013.51
2018-06-13T09:07:01.551Z,1013.52
2018-06-13T09:08:01.552Z,1013.52
2018-06-13T09:09:01.590Z,1013.54
2018-06-13T09:10:01.513Z,1013.52
2018-06-13T09:11:01.501Z,1013.48
2018-06-13T09:12:01.498Z,1013.48
2018-06-13T09:13:01.501Z,1013.47
2018-06-13T09:14:01.480Z,1013.46
2018-06-13T09:15:01.475Z,1013.49
2018-06-13T09:16:01.439Z,1013.41
2018-06-13T09:17:01.428Z,1013.46
2018-06-13T09:18:01.427Z,1013.40
2018-06-13T09:19:01.401Z,1013.42
2018-06-13T09:20:01.408Z,1013.44
2018-06-13T09:21:01.385Z,1013.43
2018-06-13T09:22:01.370Z,1013.46
2018-06-13T09:23:01.358Z,1013.40
2018-06-13T09:24:01.348Z,1013.38
2018-06-13T09:26:01.322Z,1013.44
2018-06-13T09:27:01.336Z,1013.44
2018-06-13T09:28:02.997Z,1013.48
2018-06-13T09:29:01.289Z,1013.49
2018-06-13T09:30:01.318Z,1013.45
2018-06-13T09:31:01.261Z,1013.49
2018-06-13T09:32:01.254Z,1013.45
2018-06-13T09:33:01.236Z,1013.48
2018-06-13T09:34:01.227Z,1013.45
2018-06-13T09:35:01.213Z,1013.46
2018-06-13T09:36:01.215Z,1013.43
2018-06-13T09:37:01.189Z,1013.45
2018-06-13T09:38:01.181Z,1013.41
2018-06-13T09:39:01.159Z,1013.43
2018-06-13T09:40:01.152Z,1013.39
2018-06-13T09:41:01.140Z,1013.33
2018-06-13T09:42:01.144Z,1013.37
2018-06-13T09:43:01.119Z,1013.36
2018-06-13T09:44:02.066Z,1013.38
2018-06-13T09:45:01.087Z,1013.37
2018-06-13T09:46:03.561Z,1013.41
2018-06-13T09:47:06.903Z,1013.40
2018-06-13T09:48:01.055Z,1013.39
2018-06-13T09:49:01.044Z,1013.36
2018-06-13T09:50:01.092Z,1013.37
2018-06-13T09:51:01.017Z,1013.36
2018-06-13T09:52:00.998Z,1013.39
2018-06-13T09:53:00.999Z,1013.41
2018-06-13T09:54:00.993Z,1013.44
2018-06-13T09:55:00.962Z,1013.43
2018-06-13T09:56:00.955Z,1013.43
2018-06-13T09:57:00.934Z,1013.44
2018-06-13T09:58:00.936Z,1013.46
2018-06-13T09:59:00.911Z,1013.48
2018-06-13T10:00:00.914Z,1013.50
2018-06-13T10:01:00.890Z,1013.54
2018-06-13T10:02:00.870Z,1013.48
2018-06-13T10:03:00.862Z,1013.53
2018-06-13T10:04:01.587Z,1013.51
2018-06-13T10:05:00.862Z,1013.55
2018-06-13T10:06:00.825Z,1013.51
2018-06-13T10:07:00.813Z,1013.52
2018-06-13T10:08:00.798Z,1013.52
2018-06-13T10:09:00.785Z,1013.54
2018-06-13T10:10:00.789Z,1013.55
2018-06-13T10:11:00.771Z,1013.56
2018-06-13T10:12:00.750Z,1013.56
2018-06-13T10:13:00.772Z,1013.55
2018-06-13T10:14:00.726Z,1013.58
2018-06-13T10:15:00.709Z,1013.58
2018-06-13T10:16:00.700Z,1013.58
2018-06-13T10:17:01.512Z,1013.55
2018-06-13T10:18:00.699Z,1013.56
2018-06-13T10:19:00.666Z,1013.61
2018-06-13T10:20:00.658Z,1013.59
2018-06-13T10:21:00.662Z,1013.59
2018-06-13T10:22:00.643Z,1013.60
2018-06-13T10:23:00.638Z,1013.58
2018-06-13T10:24:00.608Z,1013.60
2018-06-13T10:25:00.595Z,1013.58
2018-06-13T10:26:00.588Z,1013.56
2018-06-13T10:27:00.598Z,1013.50
2018-06-13T10:28:00.581Z,1013.58
2018-06-13T10:29:00.652Z,1013.50
2018-06-13T10:30:00.540Z,1013.56
2018-06-13T10:31:00.532Z,1013.54
2018-06-13T10:32:00.549Z,1013.57
2018-06-13T10:33:00.509Z,1013.56
2018-06-13T10:34:00.498Z,1013.54
2018-06-13T10:35:00.482Z,1013.55
2018-06-13T10:36:00.478Z,1013.55
2018-06-13T10:37:00.466Z,1013.59
2018-06-13T10:38:00.467Z,1013.56
2018-06-13T10:39:00.446Z,1013.57
2018-06-13T10:40:00.450Z,1013.55
2018-06-13T10:41:00.418Z,1013.56
2018-06-13T10:42:00.413Z,1013.59
2018-06-13T10:43:00.410Z,1013.58
2018-06-13T10:44:00.392Z,1013.58
2018-06-13T10:45:00.387Z,1013.59
2018-06-13T10:46:00.356Z,1013.58
2018-06-13T10:47:00.346Z,1013.57
2018-06-13T10:48:00.361Z,1013.58
2018-06-13T10:49:00.331Z,1013.59
2018-06-13T10:50:00.318Z,1013.57
2018-06-13T10:51:00.323Z,1013.60
2018-06-13T10:52:00.291Z,1013.58
2018-06-13T10:53:00.305Z,1013.62
2018-06-13T10:54:00.288Z,1013.60
2018-06-13T10:55:00.256Z,1013.62
2018-06-13T10:56:00.241Z,1013.65
2018-06-13T10:57:00.233Z,1013.68
2018-06-13T10:58:00.220Z,1013.67
2018-06-13T10:59:00.218Z,1013.63
2018-06-13T11:00:00.196Z,1013.64
2018-06-13T11:01:00.197Z,1013.68
2018-06-13T11:02:00.168Z,1013.65
2018-06-13T11:03:00.165Z,1013.63
2018-06-13T11:04:00.152Z,1013.68
2018-06-13T11:05:00.139Z,1013.68
2018-06-13T11:06:00.151Z,1013.71
2018-06-13T11:07:00.113Z,1013.68
2018-06-13T11:08:00.106Z,1013.73
2018-06-13T11:09:00.100Z,1013.71
2018-06-13T11:10:00.086Z,1013.70
2018-06-13T11:11:00.070Z,1013.76
2018-06-13T11:12:00.077Z,1013.69
2018-06-13T11:13:00.049Z,1013.72
2018-06-13T11:14:00.039Z,1013.69
2018-06-13T11:15:00.041Z,1013.70
2018-06-13T11:16:00.016Z,1013.71
2018-06-13T11:17:00.021Z,1013.65
2018-06-13T11:17:59.996Z,1013.66
2018-06-13T11:18:59.984Z,1013.64
2018-06-13T11:19:59.968Z,1013.63
2018-06-13T11:20:59.965Z,1013.64
2018-06-13T11:21:59.964Z,1013.65
2018-06-13T11:22:59.936Z,1013.63
2018-06-13T11:23:59.932Z,1013.63
2018-06-13T11:24:59.918Z,1013.73
2018-06-13T11:25:59.910Z,1013.71
2018-06-13T11:26:59.912Z,1013.72
2018-06-13T11:27:59.885Z,1013.70
2018-06-13T11:28:59.875Z,1013.72
2018-06-13T11:29:59.860Z,1013.73
2018-06-13T11:30:59.851Z,1013.72
2018-06-13T11:31:59.858Z,1013.70
2018-06-13T11:32:59.848Z,1013.73
2018-06-13T11:33:59.837Z,1013.68
2018-06-13T11:34:59.807Z,1013.72
2018-06-13T11:35:59.803Z,1013.72
2018-06-13T11:36:59.785Z,1013.71
2018-06-13T11:37:59.776Z,1013.78
2018-06-13T11:38:59.796Z,1013.77
2018-06-13T11:39:59.754Z,1013.78
2018-06-13T11:40:59.740Z,1013.77
2018-06-13T11:41:59.729Z,1013.79
2018-06-13T11:42:59.719Z,1013.75
2018-06-13T11:43:59.716Z,1013.74
2018-06-13T11:44:59.701Z,1013.77
2018-06-13T11:45:59.685Z,1013.81
2018-06-13T11:46:59.671Z,1013.80
2018-06-13T11:47:59.661Z,1013.78
2018-06-13T11:48:59.672Z,1013.82
2018-06-13T11:49:59.647Z,1013.80
2018-06-13T11:50:59.628Z,1013.81
2018-06-13T11:51:59.616Z,1013.77
2018-06-13T11:52:59.603Z,1013.74
2018-06-13T11:53:59.613Z,1013.77
2018-06-13T11:54:59.594Z,1013.80
2018-06-13T11:55:59.570Z,1013.73
2018-06-13T11:56:59.576Z,1013.73
2018-06-13T11:57:59.548Z,1013.75
2018-06-13T11:58:59.537Z,1013.74
2018-06-13T11:59:59.523Z,1013.74
2018-06-13T12:00:59.531Z,1013.76
2018-06-13T12:01:59.509Z,1013.75
2018-06-13T12:02:59.511Z,1013.73
2018-06-13T12:03:59.481Z,1013.76
2018-06-13T12:04:59.473Z,1013.74
2018-06-13T12:05:59.510Z,1013.76
2018-06-13T12:06:59.465Z,1013.71
2018-06-13T12:07:59.443Z,1013.72
2018-06-13T12:08:59.435Z,1013.70